Time;durP1;ratioP1;P1;durP2;ratioP2;P2;SDS_P1;SDS_P2;PMS_P1;PMS_P2;Temp;Humidity;BMP_temperature;BMP_pressure;BME280_temperature;BME280_humidity;BME280_pressure;Samples;Min_cycle;Max_cycle;Signal;HPM_P1;HPM_P2
2023/12/08 00:00:54;;;;;;;13.25;8.82;;;;;;;4.12;77.94;97526.38;4100192;28;20689;-95
2023/12/08 00:02:56;;;;;;;14.15;8.75;;;;;;;4.11;77.51;97523.88;4103177;28;21224;-95
2023/12/08 00:05:01;;;;;;;13.20;8.18;;;;;;;4.13;77.91;97529.78;4095941;28;20750;-94
2023/12/08 00:07:07;;;;;;;12.30;8.55;;;;;;;4.16;78.40;97521.88;4114192;28;20204;-95
2023/12/08 00:09:11;;;;;;;14.75;9.00;;;;;;;4.18;78.18;97515.75;4112290;28;20205;-93
2023/12/08 00:11:15;;;;;;;13.20;8.27;;;;;;;4.20;78.31;97507.91;4102422;28;20244;-96
2023/12/08 00:13:18;;;;;;;14.43;8.10;;;;;;;4.17;77.98;97495.19;4099663;28;20300;-91
2023/12/08 00:15:21;;;;;;;13.02;9.07;;;;;;;4.17;77.73;97492.59;4100687;28;20204;-92
2023/12/08 00:17:26;;;;;;;15.30;8.98;;;;;;;4.15;78.48;97504.72;4112961;28;20201;-91
2023/12/08 00:19:30;;;;;;;11.80;8.15;;;;;;;4.19;78.00;97496.75;4107556;28;20292;-90
2023/12/08 00:21:35;;;;;;;14.45;9.27;;;;;;;4.22;78.34;97494.84;4089612;28;20234;-90
2023/12/08 00:23:37;;;;;;;12.73;8.60;;;;;;;4.24;78.41;97495.59;4091833;28;20353;-90
2023/12/08 00:25:40;;;;;;;13.88;9.00;;;;;;;4.28;78.36;97501.41;4089610;28;20218;-89
2023/12/08 00:27:44;;;;;;;12.38;8.15;;;;;;;4.31;77.06;97506.41;4091322;28;20213;-91
2023/12/08 00:29:46;;;;;;;12.57;7.60;;;;;;;4.38;76.94;97500.03;4093867;28;20247;-90
2023/12/08 00:31:49;;;;;;;11.55;7.78;;;;;;;4.43;77.51;97496.25;4097941;28;20221;-91
2023/12/08 00:33:51;;;;;;;11.65;8.45;;;;;;;4.50;77.57;97507.13;4106685;28;20216;-89
2023/12/08 00:35:55;;;;;;;11.70;7.95;;;;;;;4.51;77.69;97509.63;4103878;28;20655;-90
2023/12/08 00:37:59;;;;;;;15.18;9.70;;;;;;;4.53;77.69;97520.69;4106841;28;20277;-90
2023/12/08 00:40:05;;;;;;;14.70;9.23;;;;;;;4.53;78.62;97514.69;4107456;28;20711;-90
2023/12/08 00:42:08;;;;;;;12.93;8.20;;;;;;;4.51;78.87;97512.19;4106806;28;20291;-91
2023/12/08 00:44:12;;;;;;;13.18;9.00;;;;;;;4.46;79.06;97506.41;4110695;28;20631;-91
2023/12/08 00:46:16;;;;;;;12.23;8.85;;;;;;;4.39;78.56;97502.53;4087179;28;20301;-92
2023/12/08 00:48:21;;;;;;;15.50;10.15;;;;;;;4.38;79.60;97502.59;4096435;28;20216;-91
2023/12/08 00:50:25;;;;;;;14.45;9.80;;;;;;;4.38;79.36;97502.59;4108244;28;20723;-90
2023/12/08 00:52:28;;;;;;;16.25;9.48;;;;;;;4.36;79.88;97494.94;4097544;28;20585;-90
2023/12/08 00:54:31;;;;;;;15.75;9.85;;;;;;;4.35;81.51;97480.38;4081063;29;23973;-91
2023/12/08 00:56:34;;;;;;;12.88;9.00;;;;;;;4.37;80.40;97463.03;4090497;28;20213;-91
2023/12/08 00:58:38;;;;;;;15.02;9.68;;;;;;;4.37;80.88;97455.31;4107489;28;20213;-90
2023/12/08 01:00:41;;;;;;;13.85;9.27;;;;;;;4.36;79.96;97457.97;4072964;29;20226;-91
2023/12/08 01:02:44;;;;;;;12.30;9.00;;;;;;;4.38;79.35;97490.53;4089479;28;20224;-91
2023/12/08 01:04:47;;;;;;;14.45;10.07;;;;;;;4.38;80.45;97482.78;4106562;28;20208;-89
2023/12/08 01:06:51;;;;;;;14.00;9.02;;;;;;;4.39;79.51;97476.72;4091447;28;20264;-91
2023/12/08 01:08:53;;;;;;;13.48;8.80;;;;;;;4.43;79.30;97480.78;4102956;28;20763;-91
2023/12/08 01:11:00;;;;;;;13.32;8.35;;;;;;;4.47;78.13;97484.88;4095058;28;20209;-89
2023/12/08 01:13:03;;;;;;;11.45;8.80;;;;;;;4.53;78.42;97502.59;4103590;28;20205;-90
2023/12/08 01:15:11;;;;;;;12.68;8.93;;;;;;;4.54;79.43;97496.53;4107096;28;20341;-89
2023/12/08 01:17:14;;;;;;;13.00;9.27;;;;;;;4.55;79.18;97487.88;4105586;28;20229;-91
2023/12/08 01:19:17;;;;;;;11.30;8.27;;;;;;;4.55;78.79;97477.53;4104929;28;20232;-91
2023/12/08 01:21:20;;;;;;;13.00;8.60;;;;;;;4.55;79.44;97474.94;4109520;28;20212;-90
2023/12/08 01:23:26;;;;;;;11.02;7.75;;;;;;;4.49;78.61;97458.97;4105086;28;20669;-90
2023/12/08 01:25:28;;;;;;;12.25;8.30;;;;;;;4.44;78.60;97435.19;4103442;28;20719;-89
2023/12/08 01:27:33;;;;;;;11.30;7.55;;;;;;;4.33;78.03;97447.81;4090818;28;20205;-89
2023/12/08 01:29:36;;;;;;;11.52;8.32;;;;;;;4.35;78.34;97480.38;4093345;28;20302;-90
2023/12/08 01:31:39;;;;;;;10.48;6.90;;;;;;;4.31;77.17;97470.28;4108782;28;20295;-90
2023/12/08 01:33:42;;;;;;;9.43;6.82;;;;;;;4.34;77.03;97458.03;4103882;28;20588;-91
2023/12/08 01:35:46;;;;;;;10.20;7.00;;;;;;;4.39;78.32;97468.97;4104843;28;20205;-90
2023/12/08 01:37:49;;;;;;;14.55;8.73;;;;;;;4.47;77.64;97459.06;4102019;28;20216;-90
2023/12/08 01:39:52;;;;;;;11.30;7.95;;;;;;;4.52;78.04;97454.47;4103930;28;20748;-88
2023/12/08 01:41:56;;;;;;;11.57;7.60;;;;;;;4.57;78.04;97437.00;4108857;28;20232;-88
2023/12/08 01:44:00;;;;;;;11.90;7.30;;;;;;;4.50;78.08;97420.19;4102553;28;20307;-90
2023/12/08 01:46:04;;;;;;;10.40;7.85;;;;;;;4.47;78.82;97407.44;4092724;28;20736;-89
2023/12/08 01:48:07;;;;;;;10.90;6.80;;;;;;;4.45;78.71;97401.53;4107055;28;20224;-91
2023/12/08 01:50:12;;;;;;;11.50;7.80;;;;;;;4.46;77.15;97392.84;4102432;28;20698;-90
2023/12/08 01:52:20;;;;;;;10.75;6.95;;;;;;;4.43;76.83;97403.34;4104626;28;20209;-91
2023/12/08 01:54:23;;;;;;;10.60;7.05;;;;;;;4.46;76.84;97408.34;4105748;28;20259;-91
2023/12/08 01:56:27;;;;;;;10.50;7.45;;;;;;;4.50;75.83;97403.88;4104963;28;20209;-90
2023/12/08 01:58:30;;;;;;;10.20;6.65;;;;;;;4.47;76.29;97398.88;4105045;28;20336;-90
2023/12/08 02:00:36;;;;;;;8.63;6.32;;;;;;;4.51;76.14;97410.66;4087573;28;20304;-90
2023/12/08 02:02:38;;;;;;;10.20;7.60;;;;;;;4.54;75.53;97432.00;4102881;28;20620;-91
2023/12/08 02:04:43;;;;;;;15.23;7.53;;;;;;;4.60;75.71;97436.84;4090558;28;20214;-91
2023/12/08 02:06:47;;;;;;;9.90;6.35;;;;;;;4.68;76.13;97444.97;4091503;28;20219;-90
2023/12/08 02:08:52;;;;;;;12.15;7.40;;;;;;;4.73;76.08;97450.72;4107310;28;20220;-90
2023/12/08 02:10:56;;;;;;;9.95;6.88;;;;;;;4.76;77.19;97455.69;4105758;28;20267;-91
2023/12/08 02:12:59;;;;;;;10.32;7.38;;;;;;;4.79;76.99;97447.78;4104480;28;20205;-90
2023/12/08 02:15:03;;;;;;;13.18;8.05;;;;;;;4.80;76.03;97444.28;4106721;28;20204;-88
2023/12/08 02:17:11;;;;;;;10.40;7.20;;;;;;;4.86;77.76;97459.44;4084883;28;20201;-91
2023/12/08 02:19:16;;;;;;;10.70;6.72;;;;;;;4.88;77.99;97457.59;4089544;28;20253;-91
2023/12/08 02:21:20;;;;;;;12.45;7.90;;;;;;;4.87;78.24;97448.19;4103595;28;20209;-90
2023/12/08 02:23:22;;;;;;;10.80;7.28;;;;;;;4.86;78.38;97444.78;4099599;28;20238;-91
2023/12/08 02:25:27;;;;;;;10.77;7.38;;;;;;;4.85;77.50;97452.59;4092016;28;20214;-88
2023/12/08 02:27:30;;;;;;;13.35;8.52;;;;;;;4.86;78.93;97451.69;4104862;28;20200;-92
2023/12/08 02:29:32;;;;;;;11.23;7.40;;;;;;;4.88;78.66;97450.66;4102852;28;20209;-90
2023/12/08 02:31:39;;;;;;;10.35;7.35;;;;;;;4.88;77.89;97442.09;4102655;28;20280;-92
2023/12/08 02:33:44;;;;;;;13.73;9.05;;;;;;;4.86;79.05;97446.53;4100205;28;20296;-91
2023/12/08 02:35:48;;;;;;;12.05;7.50;;;;;;;4.84;78.98;97440.59;4100097;28;20255;-90
2023/12/08 02:37:52;;;;;;;14.23;9.20;;;;;;;4.83;80.22;97441.53;4089548;28;20259;-90
2023/12/08 02:39:55;;;;;;;11.23;8.27;;;;;;;4.83;80.73;97441.53;4065286;29;20279;-91
2023/12/08 02:42:01;;;;;;;14.50;9.13;;;;;;;4.80;80.90;97444.28;4088806;28;20653;-91
2023/12/08 02:44:05;;;;;;;14.43;10.27;;;;;;;4.77;79.64;97440.13;4102325;28;20228;-90
2023/12/08 02:46:08;;;;;;;15.10;10.13;;;;;;;4.77;79.67;97442.69;4072603;29;20677;-92
2023/12/08 02:48:11;;;;;;;15.07;10.70;;;;;;;4.76;80.39;97432.47;4103854;28;20221;-92
2023/12/08 02:50:15;;;;;;;16.35;10.73;;;;;;;4.75;80.75;97420.47;4103885;28;20211;-91
2023/12/08 02:52:18;;;;;;;12.13;9.32;;;;;;;4.76;81.51;97422.13;4070556;29;20229;-92
2023/12/08 02:54:21;;;;;;;13.43;9.73;;;;;;;4.76;80.96;97427.28;4087221;28;20234;-88
2023/12/08 02:56:24;;;;;;;16.15;10.68;;;;;;;4.75;81.07;97428.19;4077046;29;20207;-91
2023/12/08 02:58:29;;;;;;;17.10;11.07;;;;;;;4.73;81.86;97424.88;4084148;29;20317;-91
2023/12/08 03:00:32;;;;;;;16.23;9.70;;;;;;;4.71;81.16;97416.41;4071825;29;20694;-90
2023/12/08 03:02:35;;;;;;;18.52;11.45;;;;;;;4.71;82.03;97424.16;4089056;28;20214;-90
2023/12/08 03:04:39;;;;;;;19.33;11.40;;;;;;;4.71;81.28;97437.06;4103306;28;20233;-90
2023/12/08 03:06:43;;;;;;;16.33;10.00;;;;;;;4.70;81.82;97432.81;4095922;28;20752;-90
2023/12/08 03:08:46;;;;;;;16.48;11.13;;;;;;;4.68;81.92;97439.00;4087445;28;20233;-91
2023/12/08 03:10:50;;;;;;;16.77;10.50;;;;;;;4.67;81.52;97427.00;4109520;28;20206;-90
2023/12/08 03:12:53;;;;;;;16.52;10.20;;;;;;;4.68;81.20;97422.56;4106167;28;20209;-91
2023/12/08 03:14:58;;;;;;;18.33;10.82;;;;;;;4.68;82.23;97408.81;4084855;28;20240;-91
2023/12/08 03:17:01;;;;;;;14.57;9.50;;;;;;;4.66;82.05;97413.25;4089126;28;20225;-91
2023/12/08 03:19:04;;;;;;;15.15;10.27;;;;;;;4.68;81.99;97408.00;4105905;28;20202;-91
2023/12/08 03:21:08;;;;;;;16.20;10.05;;;;;;;4.66;82.45;97410.69;4100178;28;20210;-91
2023/12/08 03:23:11;;;;;;;13.40;9.73;;;;;;;4.65;82.63;97418.50;4101891;28;20637;-91
2023/12/08 03:25:14;;;;;;;14.32;10.13;;;;;;;4.63;82.91;97416.00;4107902;28;20345;-90
2023/12/08 03:27:17;;;;;;;15.52;10.10;;;;;;;4.63;83.41;97410.00;4101541;28;20292;-91
2023/12/08 03:29:20;;;;;;;15.80;10.25;;;;;;;4.62;82.56;97413.50;4107883;28;20201;-91
2023/12/08 03:31:26;;;;;;;15.55;10.45;;;;;;;4.59;83.14;97406.75;4105805;28;20251;-89
2023/12/08 03:33:38;;;;;;;14.70;10.10;;;;;;;4.59;82.98;97409.34;4104336;28;20240;-90
2023/12/08 03:35:41;;;;;;;16.40;9.13;;;;;;;4.57;82.55;97403.44;4105931;28;20204;-91
2023/12/08 03:37:43;;;;;;;15.55;10.75;;;;;;;4.55;83.18;97407.00;4109668;28;20221;-91
2023/12/08 03:39:47;;;;;;;16.05;9.98;;;;;;;4.56;83.04;97399.19;4109267;28;20287;-92
2023/12/08 03:41:51;;;;;;;15.88;10.00;;;;;;;4.55;82.73;97401.84;4108038;28;20280;-90
2023/12/08 03:43:54;;;;;;;13.20;9.15;;;;;;;4.52;82.39;97391.69;4104075;28;20228;-92
2023/12/08 03:45:58;;;;;;;15.25;9.55;;;;;;;4.53;82.98;97388.22;4102459;28;20202;-89
2023/12/08 03:48:02;;;;;;;14.05;9.25;;;;;;;4.50;82.87;97380.63;4109050;28;20214;-91
2023/12/08 03:50:05;;;;;;;13.07;9.10;;;;;;;4.48;83.49;97383.31;4112129;28;20221;-88
2023/12/08 03:52:09;;;;;;;16.45;10.48;;;;;;;4.46;83.38;97384.28;4108449;28;20311;-91
2023/12/08 03:54:12;;;;;;;16.13;10.13;;;;;;;4.44;83.51;97366.31;4096681;28;20259;-92
2023/12/08 03:56:15;;;;;;;14.02;10.05;;;;;;;4.42;83.26;97368.16;4102823;28;20354;-92
2023/12/08 03:58:17;;;;;;;12.18;8.93;;;;;;;4.41;83.88;97378.56;4107463;28;20620;-89
2023/12/08 04:00:21;;;;;;;13.38;9.23;;;;;;;4.40;84.15;97392.38;4105958;28;20221;-91
2023/12/08 04:02:24;;;;;;;16.80;9.93;;;;;;;4.37;84.11;97388.19;4109969;28;20228;-91
2023/12/08 04:04:28;;;;;;;15.00;9.55;;;;;;;4.40;84.27;97406.09;4107254;28;20661;-88
2023/12/08 04:06:32;;;;;;;13.30;9.20;;;;;;;4.41;83.43;97412.94;4106963;28;20209;-91
2023/12/08 04:08:35;;;;;;;14.25;9.50;;;;;;;4.43;84.75;97405.13;4106940;28;20216;-91
2023/12/08 04:10:38;;;;;;;13.15;9.43;;;;;;;4.46;84.47;97408.34;4108591;28;20633;-92
2023/12/08 04:12:41;;;;;;;15.55;10.07;;;;;;;4.46;83.97;97412.69;4090778;28;20749;-92
2023/12/08 04:14:46;;;;;;;12.77;8.77;;;;;;;4.45;83.34;97404.13;4090118;28;20759;-92
2023/12/08 04:16:51;;;;;;;13.20;8.77;;;;;;;4.46;84.19;97399.78;4104675;28;20486;-90
2023/12/08 04:18:54;;;;;;;14.63;9.88;;;;;;;4.46;83.42;97394.63;4092405;28;20292;-91
2023/12/08 04:20:58;;;;;;;14.93;9.10;;;;;;;4.46;84.19;97398.03;4098538;28;20265;-91
2023/12/08 04:23:04;;;;;;;12.98;8.88;;;;;;;4.45;84.73;97404.13;4078420;29;20293;-91
2023/12/08 04:25:08;;;;;;;15.45;9.55;;;;;;;4.45;84.59;97390.38;4093802;28;20690;-92
2023/12/08 04:27:11;;;;;;;11.95;9.15;;;;;;;4.50;83.84;97401.28;4093194;28;20640;-91
2023/12/08 04:29:14;;;;;;;13.18;9.25;;;;;;;4.45;85.40;97411.88;4110852;28;20209;-91
2023/12/08 04:31:18;;;;;;;12.32;8.82;;;;;;;4.46;84.21;97421.25;4103615;28;20312;-91
2023/12/08 04:33:21;;;;;;;13.38;8.80;;;;;;;4.47;84.99;97424.69;4090827;28;20292;-92
2023/12/08 04:35:24;;;;;;;13.23;9.13;;;;;;;4.45;85.18;97423.91;4092863;28;20601;-91
2023/12/08 04:37:29;;;;;;;15.05;9.13;;;;;;;4.49;85.13;97428.00;4089558;28;20222;-87
2023/12/08 04:39:32;;;;;;;12.55;8.48;;;;;;;4.52;85.02;97444.13;4104730;28;20206;-92
2023/12/08 04:41:35;;;;;;;12.82;9.30;;;;;;;4.57;84.34;97447.31;4105990;28;20626;-90
2023/12/08 04:43:38;;;;;;;15.18;9.48;;;;;;;4.60;83.70;97446.31;4103938;28;20320;-92
2023/12/08 04:45:41;;;;;;;13.88;9.13;;;;;;;4.57;83.91;97454.22;4104280;28;20729;-90
2023/12/08 04:47:45;;;;;;;14.80;8.57;;;;;;;4.55;84.29;97448.31;4087173;28;20273;-91
2023/12/08 04:49:47;;;;;;;15.10;9.50;;;;;;;4.54;84.50;97437.16;4107447;28;20213;-93
2023/12/08 04:51:50;;;;;;;13.70;9.55;;;;;;;4.53;85.78;97438.06;4107458;28;20260;-90
2023/12/08 04:53:55;;;;;;;14.52;9.73;;;;;;;4.51;85.05;97437.34;4084076;28;20718;-92
2023/12/08 04:55:58;;;;;;;11.93;8.88;;;;;;;4.51;84.43;97437.34;4089093;28;20206;-91
2023/12/08 04:58:01;;;;;;;12.77;9.45;;;;;;;4.48;85.39;97432.34;4108886;28;20245;-91
2023/12/08 05:00:08;;;;;;;12.60;8.73;;;;;;;4.43;84.59;97439.47;4106667;28;20252;-91
2023/12/08 05:02:12;;;;;;;13.38;9.38;;;;;;;4.36;85.33;97435.59;4088103;28;20212;-91
2023/12/08 05:04:17;;;;;;;12.77;8.48;;;;;;;4.38;84.88;97438.91;4107223;28;20266;-90
2023/12/08 05:06:22;;;;;;;13.50;8.95;;;;;;;4.41;84.09;97441.31;4103637;28;20731;-91
2023/12/08 05:08:25;;;;;;;12.07;8.45;;;;;;;4.48;84.49;97445.25;4103970;28;20212;-91
2023/12/08 05:10:30;;;;;;;12.93;8.65;;;;;;;4.50;83.97;97445.16;4102499;28;20205;-90
2023/12/08 05:12:33;;;;;;;10.77;7.70;;;;;;;4.51;82.71;97434.75;4079747;29;20264;-92
2023/12/08 05:14:38;;;;;;;11.98;8.27;;;;;;;4.55;81.33;97430.25;4110561;28;20644;-91
2023/12/08 05:16:41;;;;;;;10.80;7.20;;;;;;;4.55;81.24;97423.31;4091067;28;20209;-90
2023/12/08 05:18:43;;;;;;;11.68;7.95;;;;;;;4.60;81.27;97425.66;4101115;28;20308;-92
2023/12/08 05:20:47;;;;;;;13.00;7.80;;;;;;;4.63;80.92;97433.22;4107572;28;20305;-90
2023/12/08 05:22:50;;;;;;;12.45;7.60;;;;;;;4.64;81.20;97420.22;4103679;28;20201;-90
2023/12/08 05:24:52;;;;;;;10.90;7.30;;;;;;;4.59;80.03;97418.84;4095829;28;20228;-91
2023/12/08 05:26:58;;;;;;;11.30;8.07;;;;;;;4.61;80.50;97409.25;4092862;28;20810;-91
2023/12/08 05:29:01;;;;;;;11.35;7.65;;;;;;;4.66;80.78;97421.00;4104297;28;20200;-91
2023/12/08 05:31:05;;;;;;;11.13;7.95;;;;;;;4.69;81.67;97408.75;4105427;28;20238;-90
2023/12/08 05:33:09;;;;;;;14.32;9.15;;;;;;;4.72;82.05;97399.97;4104273;28;20205;-91
2023/12/08 05:35:13;;;;;;;13.77;8.77;;;;;;;4.70;82.54;97397.47;4105025;28;20212;-89
2023/12/08 05:37:16;;;;;;;12.90;8.63;;;;;;;4.72;83.00;97395.66;4100304;28;20255;-91
2023/12/08 05:39:20;;;;;;;15.25;9.45;;;;;;;4.76;83.97;97397.13;4102298;28;20232;-92
2023/12/08 05:41:23;;;;;;;14.38;10.10;;;;;;;4.75;85.18;97399.78;4090178;28;20296;-92
2023/12/08 05:43:28;;;;;;;14.45;9.30;;;;;;;4.76;85.60;97401.47;4091208;28;20259;-90
2023/12/08 05:45:31;;;;;;;17.20;10.63;;;;;;;4.75;86.62;97394.63;4100518;28;20217;-91
2023/12/08 05:47:34;;;;;;;13.68;9.00;;;;;;;4.77;87.69;97387.66;4102482;28;20285;-88
2023/12/08 05:49:38;;;;;;;21.58;9.88;;;;;;;4.77;88.50;97397.97;4089227;28;20257;-90
2023/12/08 05:51:40;;;;;;;14.73;8.23;;;;;;;4.75;86.80;97392.06;4102877;28;20213;-89
2023/12/08 05:53:43;;;;;;;13.77;8.18;;;;;;;4.76;87.20;97401.47;4087347;28;20214;-89
2023/12/08 05:55:46;;;;;;;11.00;7.80;;;;;;;4.78;88.37;97397.03;4102333;28;20240;-92
2023/12/08 05:57:49;;;;;;;11.65;7.97;;;;;;;4.79;88.11;97403.88;4106696;28;20209;-91
2023/12/08 05:59:54;;;;;;;12.40;7.70;;;;;;;4.80;89.36;97400.38;4089605;28;20218;-91
2023/12/08 06:01:57;;;;;;;11.55;7.70;;;;;;;4.84;88.90;97402.72;4102965;28;20211;-89
2023/12/08 06:04:00;;;;;;;10.85;7.28;;;;;;;4.88;89.57;97403.38;4100934;28;20685;-88
2023/12/08 06:06:03;;;;;;;11.60;7.75;;;;;;;4.90;90.44;97410.13;4089334;28;20280;-89
2023/12/08 06:08:07;;;;;;;11.35;7.05;;;;;;;4.93;89.59;97424.59;4107219;28;20287;-89
2023/12/08 06:10:11;;;;;;;11.13;6.85;;;;;;;4.92;90.86;97416.00;4104703;28;20213;-91
2023/12/08 06:12:15;;;;;;;9.68;6.95;;;;;;;4.95;90.66;97421.00;4105130;28;20749;-91
2023/12/08 06:14:18;;;;;;;11.45;7.95;;;;;;;4.99;90.18;97413.91;4103549;28;20554;-91
2023/12/08 06:16:23;;;;;;;10.43;7.13;;;;;;;5.04;90.84;97424.84;4100531;28;20240;-89
2023/12/08 06:18:26;;;;;;;13.40;8.63;;;;;;;5.06;91.24;97410.88;4095298;28;20217;-94
2023/12/08 06:20:30;;;;;;;11.90;8.93;;;;;;;5.09;91.45;97415.06;4105525;28;20255;-89
2023/12/08 06:22:33;;;;;;;14.20;10.38;;;;;;;5.01;90.21;97406.91;4110042;28;20334;-89
2023/12/08 06:24:36;;;;;;;16.63;10.60;;;;;;;4.99;90.80;97403.56;4102133;28;20208;-90
2023/12/08 06:26:41;;;;;;;21.65;14.68;;;;;;;4.93;90.22;97388.44;4093915;28;21051;-90
2023/12/08 06:28:44;;;;;;;28.75;19.00;;;;;;;4.89;89.66;97392.13;4091955;28;20670;-90
2023/12/08 06:30:47;;;;;;;28.48;18.60;;;;;;;4.83;90.48;97382.97;4102726;28;20220;-88
2023/12/08 06:32:52;;;;;;;26.65;17.85;;;;;;;4.83;90.93;97384.72;4087337;28;21023;-88
2023/12/08 06:34:55;;;;;;;29.75;19.70;;;;;;;4.81;90.79;97396.88;4105065;28;20215;-88
2023/12/08 06:36:58;;;;;;;24.08;16.13;;;;;;;4.81;91.63;97400.31;4103569;28;20205;-90
2023/12/08 06:39:03;;;;;;;18.73;12.50;;;;;;;4.83;91.43;97395.88;4087193;28;20198;-91
2023/12/08 06:41:08;;;;;;;18.35;12.63;;;;;;;4.70;90.42;97404.41;4090760;28;20293;-95
2023/12/08 06:43:11;;;;;;;20.63;13.52;;;;;;;4.66;91.96;97413.25;4089475;28;20812;-92
2023/12/08 06:45:15;;;;;;;22.65;14.32;;;;;;;4.60;92.10;97411.00;4104321;28;20205;-94
2023/12/08 06:47:18;;;;;;;20.90;14.05;;;;;;;4.58;91.36;97394.75;4106419;28;20201;-95
2023/12/08 06:49:23;;;;;;;20.15;13.98;;;;;;;4.52;92.30;97405.44;4091070;28;20210;-94
2023/12/08 06:51:26;;;;;;;23.80;14.48;;;;;;;4.49;93.17;97397.03;4104452;28;20238;-93
2023/12/08 06:53:30;;;;;;;20.73;14.18;;;;;;;4.50;93.64;97399.53;4092528;28;20206;-90
2023/12/08 06:55:33;;;;;;;22.27;14.10;;;;;;;4.53;93.14;97398.53;4109635;28;20213;-95
2023/12/08 06:57:36;;;;;;;34.03;21.65;;;;;;;4.56;93.25;97399.19;4087328;28;20313;-88
2023/12/08 07:02:57;;;;;;;22.45;15.55;;;;;;;4.59;93.87;97404.19;506999;22;21282;-92
2023/12/08 07:05:03;;;;;;;20.02;13.27;;;;;;;4.61;94.56;97402.34;4144727;28;20223;-94
2023/12/08 07:07:07;;;;;;;19.13;13.50;;;;;;;4.61;93.61;97407.50;4149356;28;20688;-93
2023/12/08 07:09:11;;;;;;;22.58;13.30;;;;;;;4.60;94.52;97402.41;4160018;28;20199;-93
2023/12/08 07:11:14;;;;;;;22.98;15.15;;;;;;;4.60;93.93;97403.28;4159572;28;20207;-91
2023/12/08 07:13:17;;;;;;;20.95;13.48;;;;;;;4.61;93.66;97407.50;4143240;28;20293;-96
2023/12/08 07:15:21;;;;;;;20.20;13.07;;;;;;;4.64;94.25;97406.50;4146119;28;20230;-91
2023/12/08 07:17:24;;;;;;;23.25;14.95;;;;;;;4.66;94.53;97412.41;4145044;28;20227;-90
2023/12/08 07:19:29;;;;;;;22.15;14.38;;;;;;;4.65;95.03;97409.00;4146769;28;20207;-92
2023/12/08 07:21:35;;;;;;;20.90;13.60;;;;;;;4.68;94.01;97408.81;4145292;28;20204;-90
2023/12/08 07:23:38;;;;;;;20.95;13.70;;;;;;;4.69;94.17;97411.31;4145340;28;20212;-92
2023/12/08 07:25:44;;;;;;;22.27;13.65;;;;;;;4.71;94.31;97414.66;4146126;28;20215;-94
2023/12/08 07:27:46;;;;;;;20.88;13.77;;;;;;;4.73;94.43;97410.22;4145187;28;20238;-95
2023/12/08 07:29:49;;;;;;;22.42;14.10;;;;;;;4.73;94.84;97417.13;4146312;28;20251;-92
2023/12/08 07:31:52;;;;;;;25.38;15.82;;;;;;;4.75;94.11;97417.88;4145459;28;20223;-95
2023/12/08 07:33:56;;;;;;;35.05;20.63;;;;;;;4.77;95.09;97428.97;4143996;28;20257;-93
2023/12/08 07:35:59;;;;;;;24.50;16.27;;;;;;;4.73;94.01;97427.47;4142337;28;20207;-88
2023/12/08 07:38:04;;;;;;;27.67;16.33;;;;;;;4.74;94.73;97426.56;4143951;28;20216;-93
2023/12/08 07:40:07;;;;;;;22.05;14.48;;;;;;;4.76;94.35;97433.28;4141383;28;20206;-93
2023/12/08 07:42:12;;;;;;;23.63;14.95;;;;;;;4.78;94.98;97436.63;4140225;28;20289;-91
2023/12/08 07:44:16;;;;;;;20.83;14.07;;;;;;;4.80;94.53;97439.94;4142216;28;20216;-93
2023/12/08 07:46:19;;;;;;;26.48;16.55;;;;;;;4.81;95.14;97445.94;4138660;28;20298;-92
2023/12/08 07:48:22;;;;;;;30.20;18.90;;;;;;;4.81;94.33;97441.63;4142000;28;20303;-93
2023/12/08 07:50:26;;;;;;;24.25;16.48;;;;;;;4.82;94.42;97438.09;4142174;28;20229;-92
2023/12/08 07:52:31;;;;;;;24.80;16.13;;;;;;;4.82;95.09;97440.69;4137732;28;20208;-93
2023/12/08 07:54:35;;;;;;;31.63;19.48;;;;;;;4.85;94.36;97442.28;4140595;28;20234;-94
2023/12/08 07:56:38;;;;;;;27.02;18.55;;;;;;;4.85;95.29;97443.09;4138240;28;20203;-94
2023/12/08 07:58:42;;;;;;;25.50;16.83;;;;;;;4.85;94.06;97443.09;4143329;28;20205;-89
2023/12/08 08:00:46;;;;;;;26.23;16.85;;;;;;;4.87;95.08;97448.19;4140289;28;20327;-91
2023/12/08 08:02:50;;;;;;;22.73;14.50;;;;;;;4.90;95.50;97448.00;4157418;28;20211;-92
2023/12/08 08:04:54;;;;;;;25.50;14.80;;;;;;;4.90;96.06;97456.59;4141551;28;20239;-93
2023/12/08 08:06:57;;;;;;;24.98;16.10;;;;;;;4.91;95.58;97447.91;4142566;28;20223;-94
2023/12/08 08:09:00;;;;;;;21.92;14.68;;;;;;;4.93;95.38;97442.66;4138876;28;20219;-92
2023/12/08 08:11:05;;;;;;;20.52;14.75;;;;;;;4.93;96.04;97453.00;4155506;28;20617;-92
2023/12/08 08:13:09;;;;;;;21.17;15.38;;;;;;;4.94;95.02;97452.09;4143328;28;20203;-93
2023/12/08 08:15:11;;;;;;;21.75;15.30;;;;;;;4.92;95.91;97453.94;4139654;28;20295;-92
2023/12/08 08:17:14;;;;;;;22.98;15.40;;;;;;;4.92;95.37;97453.94;4140103;28;20693;-94
2023/12/08 08:19:17;;;;;;;23.55;15.70;;;;;;;4.89;95.57;97454.94;4138603;28;20203;-94
2023/12/08 08:21:20;;;;;;;22.65;15.18;;;;;;;4.93;95.51;97460.75;4141578;28;20250;-93
2023/12/08 08:23:24;;;;;;;22.35;14.07;;;;;;;4.94;95.79;97452.09;4140299;28;20304;-90
2023/12/08 08:25:27;;;;;;;23.17;15.60;;;;;;;4.95;95.96;97459.75;4123628;28;20235;-92
2023/12/08 08:27:33;;;;;;;25.08;15.45;;;;;;;4.98;96.10;97463.94;4137005;28;20220;-93
2023/12/08 08:29:40;;;;;;;22.00;15.23;;;;;;;4.98;95.73;97458.75;4126534;28;20218;-92
2023/12/08 08:31:43;;;;;;;28.60;19.90;;;;;;;5.02;95.86;97461.09;4143030;28;20216;-89
2023/12/08 08:33:45;;;;;;;28.60;19.30;;;;;;;5.06;95.80;97465.13;4141015;28;20207;-92
2023/12/08 08:35:49;;;;;;;27.05;18.13;;;;;;;5.09;96.10;97462.38;4143600;28;20203;-95
2023/12/08 08:37:52;;;;;;;27.58;16.92;;;;;;;5.11;95.72;97470.03;4144552;28;20215;-92
2023/12/08 08:39:55;;;;;;;24.75;15.57;;;;;;;5.12;95.96;97464.78;4143517;28;20247;-90
2023/12/08 08:41:58;;;;;;;22.95;15.32;;;;;;;5.13;96.12;97468.19;4143699;28;20200;-92
2023/12/08 08:44:03;;;;;;;22.55;14.35;;;;;;;5.14;96.13;97468.97;4142835;28;20207;-91
2023/12/08 08:46:06;;;;;;;24.17;16.10;;;;;;;5.18;96.26;97474.78;4133122;28;20306;-91
2023/12/08 08:48:09;;;;;;;27.63;16.27;;;;;;;5.18;96.33;97473.00;4158437;28;20347;-93
2023/12/08 08:50:12;;;;;;;22.58;16.05;;;;;;;5.21;96.76;97472.03;4153135;28;20685;-90
2023/12/08 08:52:16;;;;;;;24.88;15.15;;;;;;;5.21;96.54;97478.00;4141641;28;20808;-88
2023/12/08 08:54:19;;;;;;;23.10;15.00;;;;;;;5.25;96.91;97473.53;4139546;28;20681;-92
2023/12/08 08:56:22;;;;;;;24.67;15.80;;;;;;;5.28;96.24;97478.50;4127826;28;20785;-89
2023/12/08 08:58:26;;;;;;;21.98;14.15;;;;;;;5.28;96.22;97475.94;4139112;28;20275;-93
2023/12/08 09:00:30;;;;;;;23.23;16.02;;;;;;;5.29;96.30;97475.84;4141614;28;20215;-92
2023/12/08 09:02:34;;;;;;;25.70;15.77;;;;;;;5.31;96.56;97473.16;4141238;28;20291;-90
2023/12/08 09:04:37;;;;;;;22.52;14.35;;;;;;;5.32;97.11;97472.22;4138347;28;20211;-91
2023/12/08 09:06:40;;;;;;;23.30;14.75;;;;;;;5.33;96.76;97477.31;4140667;28;20208;-90
2023/12/08 09:08:44;;;;;;;27.15;17.50;;;;;;;5.34;96.88;97473.81;4117175;28;20288;-92
2023/12/08 09:10:46;;;;;;;24.20;16.27;;;;;;;5.37;96.58;97472.81;4139984;28;20253;-91
2023/12/08 09:12:51;;;;;;;27.52;17.00;;;;;;;5.39;96.86;97471.78;4138593;28;20211;-89
2023/12/08 09:14:54;;;;;;;27.13;18.30;;;;;;;5.41;96.97;97469.97;4120800;28;20820;-92
2023/12/08 09:17:00;;;;;;;28.60;19.50;;;;;;;5.44;97.20;97480.13;4141430;28;20238;-91
2023/12/08 09:19:03;;;;;;;35.90;21.92;;;;;;;5.47;96.50;97484.28;4138156;28;20207;-91
2023/12/08 09:21:06;;;;;;;22.13;15.25;;;;;;;5.48;96.63;97484.19;4143964;28;20216;-90
2023/12/08 09:23:12;;;;;;;24.75;16.88;;;;;;;5.46;97.16;97485.19;4144237;28;20208;-89
2023/12/08 09:25:16;;;;;;;26.95;17.60;;;;;;;5.46;96.60;97486.03;4120421;28;20200;-92
2023/12/08 09:27:19;;;;;;;24.20;16.35;;;;;;;5.48;96.70;97489.34;4141056;28;20318;-91
2023/12/08 09:29:22;;;;;;;28.80;17.83;;;;;;;5.51;96.75;97488.34;4136954;28;20231;-90
2023/12/08 09:31:26;;;;;;;29.42;19.83;;;;;;;5.54;97.38;97488.19;4137055;28;20302;-89
2023/12/08 09:33:31;;;;;;;20.60;15.00;;;;;;;5.55;96.77;97489.81;4129935;28;20249;-90
2023/12/08 09:35:34;;;;;;;23.10;14.88;;;;;;;5.55;96.66;97497.56;4135101;28;20236;-87
2023/12/08 09:37:37;;;;;;;20.85;14.85;;;;;;;5.58;96.80;97487.91;4145675;28;20211;-91
2023/12/08 09:39:40;;;;;;;26.73;18.17;;;;;;;5.60;96.47;97495.56;4141006;28;20233;-91
2023/12/08 09:41:44;;;;;;;70.90;37.28;;;;;;;5.62;96.63;97494.53;4138808;28;20644;-90